KSUW/SUW METAR and TAF weather

Enter ICAO airport designator
Station Type Date Time Source
KSUW METAR 2019/06/16 04:35 UTC NOAA

KSUW 160435Z AUTO 00000KT 10SM OVC090 10/04 A2991 RMK AO2 T01000041


Station Type Date Time Source
KSUW Decoded METAR 2019/06/16 04:35 UTC NOAA

Superior, Richard I. Bong Airport, WI, United States (KSUW) 46-41-23N 092-05-41W
Jun 16, 2019 - 12:35 AM EDT / 2019.06.16 0435 UTC
Wind: Calm:0
Visibility: 10 mile(s):0
Sky conditions: overcast
Temperature: 50.0 F (10.0 C)
Dew Point: 39.4 F (4.1 C)
Relative Humidity: 66%
Pressure (altimeter): 29.91 in. Hg (1012 hPa)
ob: KSUW 160435Z AUTO 00000KT 10SM OVC090 10/04 A2991 RMK AO2 T01000041
cycle: 4

Station Type Date Time Source
KSUW TAF UTC NOAA

Error!

Example: see airport list